createdAt,value
2017-10-24T00:00:02.987Z,32
2017-10-24T00:01:02.965Z,32
2017-10-24T00:02:04.124Z,32
2017-10-24T00:03:02.901Z,32
2017-10-24T00:04:04.046Z,32
2017-10-24T00:05:03.059Z,32
2017-10-24T00:06:04.236Z,32
2017-10-24T00:07:04.473Z,32
2017-10-24T00:08:03.230Z,32
2017-10-24T00:09:04.365Z,32
2017-10-24T00:10:03.372Z,32
2017-10-24T00:11:04.397Z,32
2017-10-24T00:12:04.723Z,32
2017-10-24T00:13:03.697Z,32
2017-10-24T00:14:04.663Z,32
2017-10-24T00:15:04.741Z,32
2017-10-24T00:16:04.785Z,32
2017-10-24T00:17:03.966Z,32
2017-10-24T00:18:04.945Z,32
2017-10-24T00:19:03.911Z,32
2017-10-24T00:20:03.941Z,32
2017-10-24T00:21:05.027Z,32.1
2017-10-24T00:22:03.987Z,32.1
2017-10-24T00:23:05.082Z,32.1
2017-10-24T00:24:04.282Z,32
2017-10-24T00:25:04.274Z,32
2017-10-24T00:26:04.140Z,32
2017-10-24T00:27:04.350Z,32.1
2017-10-24T00:28:04.429Z,32
2017-10-24T00:29:05.593Z,32
2017-10-24T00:30:04.370Z,32.1
2017-10-24T00:31:04.400Z,32.1
2017-10-24T00:32:05.764Z,32
2017-10-24T00:33:05.602Z,32.1
2017-10-24T00:34:04.826Z,32.1
2017-10-24T00:35:05.743Z,32.1
2017-10-24T00:36:05.981Z,32.1
2017-10-24T00:37:06.080Z,32
2017-10-24T00:38:05.950Z,32
2017-10-24T00:39:04.899Z,32.1
2017-10-24T00:40:04.910Z,32.1
2017-10-24T00:41:06.078Z,32.1
2017-10-24T00:42:05.249Z,32
2017-10-24T00:43:06.235Z,32.1
2017-10-24T00:44:05.468Z,32.1
2017-10-24T00:45:06.500Z,32.1
2017-10-24T00:46:05.234Z,32.1
2017-10-24T00:47:05.256Z,32.1
2017-10-24T00:48:06.556Z,32.1
2017-10-24T00:49:06.661Z,32.1
2017-10-24T00:50:06.418Z,32.1
2017-10-24T00:51:06.535Z,32.1
2017-10-24T00:52:05.642Z,32.1
2017-10-24T00:53:06.812Z,32.1
2017-10-24T00:54:06.624Z,32.1
2017-10-24T00:55:06.908Z,32.1
2017-10-24T00:56:06.686Z,32.1
2017-10-24T00:57:06.954Z,32.1
2017-10-24T00:58:05.917Z,32.1
2017-10-24T00:59:05.761Z,32.1
2017-10-24T01:00:06.868Z,32.1
2017-10-24T01:01:07.119Z,32.1
2017-10-24T01:02:05.908Z,32.1
2017-10-24T01:03:07.277Z,32.1
2017-10-24T01:04:07.265Z,32.1
2017-10-24T01:05:06.244Z,32.1
2017-10-24T01:06:07.202Z,32.1
2017-10-24T01:07:07.466Z,32.1
2017-10-24T01:08:07.319Z,32.1
2017-10-24T01:09:06.486Z,32.1
2017-10-24T01:10:06.313Z,32.1
2017-10-24T01:11:06.311Z,32.1
2017-10-24T01:12:06.389Z,32.1
2017-10-24T01:13:06.586Z,32.1
2017-10-24T01:14:06.698Z,32.1
2017-10-24T01:15:06.688Z,32.1
2017-10-24T01:16:07.647Z,32.1
2017-10-24T01:17:07.984Z,32.1
2017-10-24T01:18:07.957Z,32.1
2017-10-24T01:19:06.672Z,32
2017-10-24T01:20:07.830Z,32
2017-10-24T01:21:08.120Z,32.1
2017-10-24T01:22:08.100Z,32.1
2017-10-24T01:23:08.168Z,32.1
2017-10-24T01:24:07.200Z,32.1
2017-10-24T01:25:08.290Z,32.1
2017-10-24T01:26:08.121Z,32.1
2017-10-24T01:27:08.413Z,32.1
2017-10-24T01:28:08.258Z,32.1
2017-10-24T01:29:07.199Z,32.1
2017-10-24T01:30:07.322Z,32.1
2017-10-24T01:31:07.529Z,32.1
2017-10-24T01:32:07.316Z,32.1
2017-10-24T01:33:07.379Z,32.1
2017-10-24T01:34:08.549Z,32.1
2017-10-24T01:35:07.562Z,32.1
2017-10-24T01:36:07.777Z,32.1
2017-10-24T01:37:07.590Z,32.1
2017-10-24T01:38:08.973Z,32.1
2017-10-24T01:39:07.893Z,32.1
2017-10-24T01:40:08.974Z,32.1
2017-10-24T01:41:07.738Z,32.1
2017-10-24T01:42:07.974Z,32.1
2017-10-24T01:43:07.999Z,32.1
2017-10-24T01:44:08.033Z,32.1
2017-10-24T01:45:08.121Z,32.1
2017-10-24T01:46:08.009Z,32.1
2017-10-24T01:47:09.334Z,32.1
2017-10-24T01:48:09.242Z,32.1
2017-10-24T01:49:09.497Z,32.1
2017-10-24T01:50:09.309Z,32.1
2017-10-24T01:51:09.408Z,32.1
2017-10-24T01:52:08.634Z,32.1
2017-10-24T01:53:09.539Z,32.1
2017-10-24T01:54:08.695Z,32.1
2017-10-24T01:55:08.580Z,32.1
2017-10-24T01:56:09.933Z,32.1
2017-10-24T01:57:08.716Z,32.1
2017-10-24T01:58:08.999Z,32.1
2017-10-24T01:59:08.888Z,32.1
2017-10-24T02:00:09.041Z,32.1
2017-10-24T02:01:09.089Z,32.1
2017-10-24T02:02:09.000Z,32.1
2017-10-24T02:03:09.098Z,32.1
2017-10-24T02:04:10.203Z,32.1
2017-10-24T02:05:09.348Z,32.1
2017-10-24T02:06:10.260Z,32.1
2017-10-24T02:07:10.474Z,32.1
2017-10-24T02:08:10.564Z,32.1
2017-10-24T02:09:09.323Z,32.1
2017-10-24T02:10:10.620Z,32.1
2017-10-24T02:11:10.448Z,32.1
2017-10-24T02:12:10.746Z,32.1
2017-10-24T02:13:09.556Z,32.1
2017-10-24T02:14:10.654Z,32.1
2017-10-24T02:15:09.779Z,32.1
2017-10-24T02:16:09.660Z,32.1
2017-10-24T02:17:10.955Z,32.1
2017-10-24T02:18:10.781Z,32.1
2017-10-24T02:19:09.917Z,32.1
2017-10-24T02:20:09.929Z,32.1
2017-10-24T02:21:09.848Z,32.1
2017-10-24T02:22:10.101Z,32.1
2017-10-24T02:23:09.974Z,32.1
2017-10-24T02:24:11.309Z,32.1
2017-10-24T02:25:11.373Z,32.1
2017-10-24T02:26:11.263Z,32.1
2017-10-24T02:27:10.405Z,32.1
2017-10-24T02:28:10.288Z,32.1
2017-10-24T02:29:11.680Z,32.1
2017-10-24T02:30:11.793Z,32.1
2017-10-24T02:31:10.713Z,32.1
2017-10-24T02:32:11.907Z,32.1
2017-10-24T02:33:11.680Z,32.1
2017-10-24T02:34:10.680Z,32.1
2017-10-24T02:35:11.963Z,32.1
2017-10-24T02:36:12.012Z,32.2
2017-10-24T02:37:10.974Z,32.2
2017-10-24T02:38:11.836Z,32.1
2017-10-24T02:39:11.920Z,32.1
2017-10-24T02:40:11.073Z,32.1
2017-10-24T02:41:12.248Z,32.1
2017-10-24T02:42:11.287Z,32.1
2017-10-24T02:43:11.284Z,32.2
2017-10-24T02:44:12.150Z,32.1
2017-10-24T02:45:12.181Z,32.1
2017-10-24T02:46:12.235Z,32.1
2017-10-24T02:47:12.268Z,32.1
2017-10-24T02:48:11.449Z,32.1
2017-10-24T02:49:11.342Z,32.2
2017-10-24T02:50:12.466Z,32.1
2017-10-24T02:51:11.734Z,32.1
2017-10-24T02:52:11.727Z,32.1
2017-10-24T02:53:12.887Z,32.1
2017-10-24T02:54:11.816Z,32.1
2017-10-24T02:55:11.706Z,32.1
2017-10-24T02:56:13.089Z,32.1
2017-10-24T02:57:13.131Z,32.1
2017-10-24T02:58:11.952Z,32.1
2017-10-24T02:59:11.985Z,32.1
2017-10-24T03:00:13.085Z,32.1
2017-10-24T03:01:14.092Z,32.2
2017-10-24T03:02:12.134Z,32.2
2017-10-24T03:03:12.226Z,32.2
2017-10-24T03:04:12.257Z,32.2
2017-10-24T03:05:13.650Z,32.2
2017-10-24T03:06:13.702Z,32.2
2017-10-24T03:07:12.727Z,32.1
2017-10-24T03:08:13.827Z,32.2
2017-10-24T03:09:12.629Z,32.2
2017-10-24T03:10:14.007Z,32.2
2017-10-24T03:11:12.749Z,32.2
2017-10-24T03:12:13.014Z,32.2
2017-10-24T03:13:12.894Z,32.2
2017-10-24T03:14:12.971Z,32.2
2017-10-24T03:15:12.955Z,32.2
2017-10-24T03:16:13.257Z,32.2
2017-10-24T03:17:14.226Z,32.2
2017-10-24T03:18:13.154Z,32.2
2017-10-24T03:19:13.425Z,32.2
2017-10-24T03:20:14.582Z,32.2
2017-10-24T03:21:13.319Z,32.2
2017-10-24T03:22:14.690Z,32.2
2017-10-24T03:23:13.637Z,32.2
2017-10-24T03:24:14.591Z,32.2
2017-10-24T03:25:13.832Z,32.2
2017-10-24T03:26:13.709Z,32.2
2017-10-24T03:27:13.824Z,32.2
2017-10-24T03:28:14.996Z,32.2
2017-10-24T03:29:14.997Z,32.2
2017-10-24T03:30:15.051Z,32.2
2017-10-24T03:31:15.074Z,32.2
2017-10-24T03:32:14.151Z,32.2
2017-10-24T03:33:14.194Z,32.2
2017-10-24T03:34:14.203Z,32.1
2017-10-24T03:35:14.405Z,32.1
2017-10-24T03:36:15.521Z,32.1
2017-10-24T03:37:14.521Z,32.1
2017-10-24T03:38:15.681Z,32.2
2017-10-24T03:39:15.729Z,32.2
2017-10-24T03:40:14.705Z,32.1
2017-10-24T03:41:15.573Z,32.2
2017-10-24T03:42:15.601Z,32.2
2017-10-24T03:43:15.734Z,32.2
2017-10-24T03:44:14.681Z,32.2
2017-10-24T03:45:15.838Z,32.2
2017-10-24T03:46:16.117Z,32.1
2017-10-24T03:47:15.019Z,32.2
2017-10-24T03:48:16.192Z,32.2
2017-10-24T03:49:16.063Z,32.2
2017-10-24T03:50:16.354Z,32.3
2017-10-24T03:51:15.324Z,32.3
2017-10-24T03:52:16.434Z,32.4
2017-10-24T03:53:15.198Z,32.4
2017-10-24T03:54:16.576Z,32.4
2017-10-24T03:55:15.503Z,32.4
2017-10-24T03:56:16.569Z,32.3
2017-10-24T03:57:16.619Z,32.3
2017-10-24T03:58:16.435Z,32.3
2017-10-24T03:59:16.567Z,32.3
2017-10-24T04:00:16.801Z,32.4
2017-10-24T04:01:16.885Z,32.4
2017-10-24T04:02:15.787Z,32.4
2017-10-24T04:03:16.719Z,32.4
2017-10-24T04:04:17.006Z,32.4
2017-10-24T04:05:17.051Z,32.3
2017-10-24T04:06:16.014Z,32.3
2017-10-24T04:07:16.933Z,32.3
2017-10-24T04:08:16.989Z,32.3
2017-10-24T04:09:17.234Z,32.3
2017-10-24T04:10:16.255Z,32.3
2017-10-24T04:11:16.246Z,32.3
2017-10-24T04:12:16.128Z,32.3
2017-10-24T04:13:17.237Z,32.3
2017-10-24T04:14:16.182Z,32.3
2017-10-24T04:15:16.267Z,32.3
2017-10-24T04:16:17.586Z,32.3
2017-10-24T04:17:16.545Z,32.3
2017-10-24T04:18:16.413Z,32.3
2017-10-24T04:19:16.703Z,32.3
2017-10-24T04:20:17.809Z,32.3
2017-10-24T04:21:17.879Z,32.3
2017-10-24T04:22:16.850Z,32.3
2017-10-24T04:23:16.925Z,32.3
2017-10-24T04:24:16.974Z,32.3
2017-10-24T04:25:16.803Z,32.3
2017-10-24T04:26:17.067Z,32.3
2017-10-24T04:27:18.121Z,32.3
2017-10-24T04:28:18.294Z,32.3
2017-10-24T04:29:18.084Z,32.3
2017-10-24T04:30:18.284Z,32.3
2017-10-24T04:31:17.353Z,32.5
2017-10-24T04:32:17.101Z,32.6
2017-10-24T04:33:18.260Z,32.8
2017-10-24T04:34:18.202Z,32.9
2017-10-24T04:35:18.469Z,33
2017-10-24T04:36:17.433Z,33.2
2017-10-24T04:37:18.356Z,33.3
2017-10-24T04:38:18.680Z,33.4
2017-10-24T04:39:18.658Z,33.5
2017-10-24T04:40:18.460Z,33.6
2017-10-24T04:41:17.632Z,33.7
2017-10-24T04:42:17.538Z,33.7
2017-10-24T04:43:18.903Z,33.8
2017-10-24T04:44:18.963Z,33.9
2017-10-24T04:45:17.731Z,34
2017-10-24T04:46:18.040Z,34.1
2017-10-24T04:47:17.893Z,34.2
2017-10-24T04:48:19.193Z,34.3
2017-10-24T04:49:17.915Z,34.4
2017-10-24T04:50:19.275Z,34.4
2017-10-24T04:51:19.335Z,34.5
2017-10-24T04:52:19.479Z,34.6
2017-10-24T04:53:19.491Z,34.6
2017-10-24T04:54:19.261Z,34.7
2017-10-24T04:55:18.407Z,34.7
2017-10-24T04:56:19.336Z,34.8
2017-10-24T04:57:19.630Z,34.8
2017-10-24T04:58:19.441Z,34.8
2017-10-24T04:59:18.637Z,34.9
2017-10-24T05:00:19.816Z,34.9
2017-10-24T05:01:18.764Z,34.9
2017-10-24T05:02:19.879Z,35
2017-10-24T05:03:18.654Z,35
2017-10-24T05:04:19.939Z,35
2017-10-24T05:05:18.722Z,35
2017-10-24T05:06:19.250Z,35
2017-10-24T05:07:19.110Z,35
2017-10-24T05:08:20.203Z,35
2017-10-24T05:09:20.203Z,35
2017-10-24T05:10:19.243Z,35
2017-10-24T05:11:19.227Z,35.1
2017-10-24T05:12:20.234Z,35.1
2017-10-24T05:13:19.230Z,35.1
2017-10-24T05:14:19.265Z,35.1
2017-10-24T05:15:20.418Z,35.1
2017-10-24T05:16:19.394Z,35.1
2017-10-24T05:17:19.613Z,35.1
2017-10-24T05:18:19.423Z,35.1
2017-10-24T05:19:19.457Z,35.1
2017-10-24T05:20:20.581Z,35.1
2017-10-24T05:21:20.924Z,35.1
2017-10-24T05:22:19.628Z,35.2
2017-10-24T05:23:25.944Z,35.1
2017-10-24T05:24:21.101Z,35.1
2017-10-24T05:25:20.598Z,35.1
2017-10-24T05:26:20.062Z,35.1
2017-10-24T05:27:21.156Z,35.1
2017-10-24T05:28:20.993Z,35.2
2017-10-24T05:29:21.273Z,35.1
2017-10-24T05:30:20.166Z,35.1
2017-10-24T05:31:19.991Z,35.1
2017-10-24T05:32:20.238Z,35.1
2017-10-24T05:33:21.323Z,35.1
2017-10-24T05:34:25.665Z,35.1
2017-10-24T05:35:20.211Z,35.1
2017-10-24T05:36:20.430Z,35.1
2017-10-24T05:37:21.339Z,35
2017-10-24T05:38:21.625Z,35
2017-10-24T05:39:20.404Z,35
2017-10-24T05:40:21.498Z,35
2017-10-24T05:41:21.561Z,35
2017-10-24T05:42:21.870Z,35
2017-10-24T05:43:21.728Z,35
2017-10-24T05:44:20.920Z,35
2017-10-24T05:45:20.822Z,35
2017-10-24T05:46:20.855Z,34.9
2017-10-24T05:47:20.934Z,34.9
2017-10-24T05:48:22.026Z,34.9
2017-10-24T05:49:21.000Z,34.9
2017-10-24T05:50:21.008Z,34.8
2017-10-24T05:51:22.147Z,34.8
2017-10-24T05:52:21.078Z,34.8
2017-10-24T05:53:22.240Z,34.8
2017-10-24T05:54:22.297Z,34.7
2017-10-24T05:55:22.397Z,34.7
2017-10-24T05:56:21.389Z,34.7
2017-10-24T05:57:21.674Z,34.7
2017-10-24T05:58:22.829Z,34.6
2017-10-24T05:59:22.836Z,34.5
2017-10-24T06:00:22.855Z,34.5
2017-10-24T06:01:21.611Z,34.5
2017-10-24T06:02:21.790Z,34.5
2017-10-24T06:03:22.919Z,34.5
2017-10-24T06:04:23.537Z,34.4
2017-10-24T06:05:23.110Z,34.4
2017-10-24T06:06:22.515Z,34.4
2017-10-24T06:07:23.182Z,34.5
2017-10-24T06:08:23.227Z,34.5
2017-10-24T06:09:22.048Z,34.5
2017-10-24T06:10:22.227Z,34.4
2017-10-24T06:11:22.310Z,34.5
2017-10-24T06:12:23.417Z,34.6
2017-10-24T06:13:22.210Z,34.6
2017-10-24T06:14:23.247Z,34.8
2017-10-24T06:15:23.574Z,35
2017-10-24T06:16:22.538Z,35.2
2017-10-24T06:17:22.640Z,35.4
2017-10-24T06:18:22.666Z,35.6
2017-10-24T06:19:23.811Z,35.8
2017-10-24T06:20:22.735Z,35.9
2017-10-24T06:21:23.763Z,36
2017-10-24T06:22:22.613Z,36.1
2017-10-24T06:23:22.889Z,36.2
2017-10-24T06:24:23.072Z,36.3
2017-10-24T06:25:23.826Z,36.5
2017-10-24T06:26:23.927Z,36.6
2017-10-24T06:27:23.164Z,36.7
2017-10-24T06:28:23.976Z,36.9
2017-10-24T06:29:22.988Z,37
2017-10-24T06:30:23.004Z,37.2
2017-10-24T06:31:24.132Z,37.2
2017-10-24T06:32:23.103Z,37.3
2017-10-24T06:33:23.314Z,37.4
2017-10-24T06:34:23.402Z,37.4
2017-10-24T06:35:23.242Z,37.5
2017-10-24T06:36:24.223Z,37.6
2017-10-24T06:37:24.557Z,37.7
2017-10-24T06:38:24.452Z,37.6
2017-10-24T06:39:24.508Z,37.7
2017-10-24T06:40:24.511Z,37.8
2017-10-24T06:41:23.541Z,37.8
2017-10-24T06:42:24.925Z,37.8
2017-10-24T06:43:24.862Z,37.9
2017-10-24T06:44:23.811Z,37.9
2017-10-24T06:45:24.910Z,37.9
2017-10-24T06:46:24.661Z,37.9
2017-10-24T06:47:23.974Z,37.9
2017-10-24T06:48:24.036Z,37.9
2017-10-24T06:49:24.923Z,37.9
2017-10-24T06:50:25.120Z,38
2017-10-24T06:51:25.226Z,38
2017-10-24T06:52:24.975Z,38.1
2017-10-24T06:53:23.979Z,38.2
2017-10-24T06:54:25.159Z,38.2
2017-10-24T06:55:24.419Z,38.3
2017-10-24T06:56:25.391Z,38.3
2017-10-24T06:57:25.114Z,38.3
2017-10-24T06:58:25.395Z,38.4
2017-10-24T06:59:24.359Z,38.4
2017-10-24T07:00:25.526Z,38.4
2017-10-24T07:01:24.804Z,38.3
2017-10-24T07:02:25.449Z,38.3
2017-10-24T07:03:24.470Z,38.4
2017-10-24T07:04:25.735Z,38.5
2017-10-24T07:05:25.542Z,38.6
2017-10-24T07:06:24.661Z,38.6
2017-10-24T07:07:24.734Z,38.6
2017-10-24T07:08:24.834Z,38.6
2017-10-24T07:09:26.062Z,38.6
2017-10-24T07:10:24.955Z,38.6
2017-10-24T07:11:25.935Z,38.7
2017-10-24T07:12:26.112Z,38.7
2017-10-24T07:13:26.141Z,38.7
2017-10-24T07:14:25.218Z,38.7
2017-10-24T07:15:25.049Z,38.6
2017-10-24T07:16:26.098Z,38.7
2017-10-24T07:17:25.176Z,38.7
2017-10-24T07:18:25.162Z,38.7
2017-10-24T07:19:25.189Z,38.8
2017-10-24T07:20:25.394Z,38.8
2017-10-24T07:21:26.393Z,38.9
2017-10-24T07:22:25.548Z,39
2017-10-24T07:23:25.724Z,39.1
2017-10-24T07:24:25.501Z,39.1
2017-10-24T07:25:26.824Z,39.1
2017-10-24T07:26:26.608Z,39.2
2017-10-24T07:27:25.667Z,39.2
2017-10-24T07:28:26.735Z,39.2
2017-10-24T07:29:25.799Z,39.1
2017-10-24T07:30:27.151Z,39.1
2017-10-24T07:31:26.448Z,39
2017-10-24T07:32:27.098Z,39.1
2017-10-24T07:33:27.486Z,39.1
2017-10-24T07:34:27.435Z,39
2017-10-24T07:35:27.292Z,38.9
2017-10-24T07:36:26.465Z,39
2017-10-24T07:37:26.414Z,38.8
2017-10-24T07:38:26.482Z,38.9
2017-10-24T07:39:26.929Z,38.8
2017-10-24T07:40:27.701Z,38.8
2017-10-24T07:41:26.902Z,38.9
2017-10-24T07:42:27.193Z,38.8
2017-10-24T07:43:28.251Z,38.8
2017-10-24T07:44:28.230Z,38.8
2017-10-24T07:45:27.196Z,38.7
2017-10-24T07:46:28.201Z,38.7
2017-10-24T07:47:28.322Z,38.8
2017-10-24T07:48:27.234Z,38.7
2017-10-24T07:49:28.430Z,38.7
2017-10-24T07:50:27.167Z,38.7
2017-10-24T07:51:28.474Z,38.7
2017-10-24T07:52:28.652Z,38.7
2017-10-24T07:53:27.479Z,38.8
2017-10-24T07:54:28.698Z,38.8
2017-10-24T07:55:27.636Z,38.8
2017-10-24T07:56:43.876Z,38.7
2017-10-24T07:57:42.801Z,38.7
2017-10-24T07:58:42.791Z,38.6
2017-10-24T07:59:43.918Z,38.6
2017-10-24T08:00:42.914Z,38.6
2017-10-24T08:01:42.861Z,38.5
2017-10-24T08:02:44.111Z,38.6
2017-10-24T08:03:43.267Z,38.6
2017-10-24T08:04:43.437Z,38.5
2017-10-24T08:05:42.924Z,38.6
2017-10-24T08:06:43.013Z,38.6
2017-10-24T08:07:43.230Z,38.7
2017-10-24T08:08:44.173Z,38.8
2017-10-24T08:09:46.078Z,38.8
2017-10-24T08:10:47.029Z,38.9
2017-10-24T08:11:45.785Z,38.9
2017-10-24T08:12:45.596Z,38.8
2017-10-24T08:13:47.023Z,38.8
2017-10-24T08:14:46.878Z,38.9
2017-10-24T08:15:47.528Z,38.9
2017-10-24T08:16:46.701Z,39
2017-10-24T08:17:47.783Z,39
2017-10-24T08:18:47.507Z,38.9
2017-10-24T08:19:47.122Z,38.9
2017-10-24T08:20:47.713Z,39
2017-10-24T08:21:47.251Z,39
2017-10-24T08:22:46.084Z,39
2017-10-24T08:23:46.229Z,39
2017-10-24T08:24:46.505Z,39
2017-10-24T08:25:46.019Z,38.9
2017-10-24T08:26:46.775Z,39
2017-10-24T08:27:47.787Z,39
2017-10-24T08:28:47.902Z,39.1
2017-10-24T08:29:46.585Z,39.2
2017-10-24T08:30:46.725Z,39.3
2017-10-24T08:31:46.731Z,39.3
2017-10-24T08:32:48.214Z,39.3
2017-10-24T08:33:47.324Z,39.4
2017-10-24T08:34:47.158Z,39.4
2017-10-24T08:35:46.855Z,39.3
2017-10-24T08:36:46.900Z,39.3
2017-10-24T08:37:47.087Z,39.4
2017-10-24T08:38:48.537Z,39.4
2017-10-24T08:39:47.676Z,39.4
2017-10-24T08:40:47.517Z,39.4
2017-10-24T08:41:47.407Z,39.5
2017-10-24T08:42:48.539Z,39.5
2017-10-24T08:43:48.888Z,39.5
2017-10-24T08:44:48.727Z,39.4
2017-10-24T08:45:48.988Z,39.4
2017-10-24T08:46:47.427Z,39.4
2017-10-24T08:47:49.395Z,39.3
2017-10-24T08:48:48.935Z,39.3
2017-10-24T08:49:47.831Z,39.4
2017-10-24T08:50:49.119Z,39.4
2017-10-24T08:51:48.980Z,39.3
2017-10-24T08:52:49.216Z,39.2
2017-10-24T08:53:49.267Z,39.2
2017-10-24T08:54:48.255Z,39.2
2017-10-24T08:55:49.958Z,39.3
2017-10-24T08:56:49.780Z,39.3
2017-10-24T08:57:49.266Z,39.3
2017-10-24T08:58:48.340Z,39.3
2017-10-24T08:59:49.488Z,39.4
2017-10-24T09:00:48.528Z,39.3
2017-10-24T09:01:49.431Z,39.4
2017-10-24T09:02:49.648Z,39.3
2017-10-24T09:03:49.743Z,39.4
2017-10-24T09:04:48.639Z,39.5
2017-10-24T09:05:48.936Z,39.5
2017-10-24T09:06:49.818Z,39.5
2017-10-24T09:07:48.894Z,39.6
2017-10-24T09:08:50.160Z,39.6
2017-10-24T09:09:48.911Z,39.7
2017-10-24T09:10:49.108Z,39.8
2017-10-24T09:11:50.033Z,39.8
2017-10-24T09:12:49.241Z,39.9
2017-10-24T09:13:49.632Z,39.9
2017-10-24T09:14:50.380Z,39.9
2017-10-24T09:15:48.905Z,39.9
2017-10-24T09:16:50.267Z,40
2017-10-24T09:17:50.380Z,40
2017-10-24T09:18:49.382Z,40.1
2017-10-24T09:19:49.231Z,40.1
2017-10-24T09:20:50.459Z,40
2017-10-24T09:21:50.240Z,40.1
2017-10-24T09:22:50.515Z,40
2017-10-24T09:23:50.512Z,40
2017-10-24T09:24:49.483Z,40
2017-10-24T09:25:49.490Z,40
2017-10-24T09:26:50.546Z,40
2017-10-24T09:27:49.662Z,40
2017-10-24T09:28:50.815Z,40
2017-10-24T09:29:50.820Z,40.1
2017-10-24T09:30:49.624Z,40.1
2017-10-24T09:31:49.673Z,40.1
2017-10-24T09:32:50.014Z,40.1
2017-10-24T09:33:50.847Z,40.1
2017-10-24T09:34:50.815Z,40.1
2017-10-24T09:35:51.059Z,40.1
2017-10-24T09:36:51.448Z,40.1
2017-10-24T09:37:50.344Z,40.1
2017-10-24T09:38:51.101Z,40.2
2017-10-24T09:39:51.520Z,40.2
2017-10-24T09:40:51.813Z,40.2
2017-10-24T09:41:51.866Z,40.1
2017-10-24T09:42:52.089Z,40.2
2017-10-24T09:43:50.550Z,40.2
2017-10-24T09:44:50.549Z,40.1
2017-10-24T09:45:51.968Z,40.1
2017-10-24T09:46:50.704Z,40
2017-10-24T09:47:52.208Z,40.1
2017-10-24T09:48:52.038Z,40.1
2017-10-24T09:49:50.763Z,40.1
2017-10-24T09:50:50.840Z,40.1
2017-10-24T09:51:50.927Z,40.1
2017-10-24T09:52:52.368Z,40.1
2017-10-24T09:53:51.839Z,40.1
2017-10-24T09:54:53.478Z,40.1
2017-10-24T09:55:51.309Z,40.2
2017-10-24T09:56:51.657Z,40.1
2017-10-24T09:57:52.805Z,40.1
2017-10-24T09:58:51.704Z,40.2
2017-10-24T09:59:53.134Z,40.2
2017-10-24T10:00:52.670Z,40.2
2017-10-24T10:01:51.825Z,40.3
2017-10-24T10:02:51.761Z,40.3
2017-10-24T10:03:53.906Z,40.3
2017-10-24T10:04:53.148Z,40.3
2017-10-24T10:05:52.805Z,40.2
2017-10-24T10:06:53.230Z,40.1
2017-10-24T10:07:53.308Z,40.1
2017-10-24T10:08:53.471Z,40
2017-10-24T10:09:53.316Z,40
2017-10-24T10:10:52.110Z,40.1
2017-10-24T10:11:53.351Z,40
2017-10-24T10:12:53.554Z,40
2017-10-24T10:13:54.651Z,39.9
2017-10-24T10:14:52.401Z,39.8
2017-10-24T10:15:52.313Z,39.8
2017-10-24T10:16:52.567Z,39.7
2017-10-24T10:17:52.278Z,39.6
2017-10-24T10:18:53.903Z,39.4
2017-10-24T10:19:52.619Z,39.3
2017-10-24T10:20:53.932Z,39.2
2017-10-24T10:21:52.634Z,39.1
2017-10-24T10:22:54.035Z,39.1
2017-10-24T10:23:54.081Z,39
2017-10-24T10:24:53.802Z,39
2017-10-24T10:25:54.173Z,38.9
2017-10-24T10:26:54.040Z,38.9
2017-10-24T10:27:54.232Z,38.8
2017-10-24T10:28:54.232Z,38.8
2017-10-24T10:29:54.143Z,38.9
2017-10-24T10:30:54.568Z,38.9
2017-10-24T10:31:54.108Z,38.9
2017-10-24T10:32:54.420Z,38.9
2017-10-24T10:33:53.342Z,38.9
2017-10-24T10:34:54.430Z,38.9
2017-10-24T10:35:54.544Z,38.9
2017-10-24T10:36:54.053Z,38.9
2017-10-24T10:37:52.614Z,38.9
2017-10-24T10:38:52.948Z,38.7
2017-10-24T10:39:52.962Z,38.6
2017-10-24T10:40:54.087Z,38.5
2017-10-24T10:41:53.292Z,38.4
2017-10-24T10:42:54.409Z,38.3
2017-10-24T10:43:54.098Z,38.3
2017-10-24T10:44:53.531Z,38.4
2017-10-24T10:45:53.252Z,38.4
2017-10-24T10:46:54.527Z,38.4
2017-10-24T10:47:53.619Z,38.5
2017-10-24T10:48:53.867Z,38.5
2017-10-24T10:49:54.652Z,38.5
2017-10-24T10:50:53.690Z,38.5
2017-10-24T10:51:54.932Z,38.5
2017-10-24T10:52:53.862Z,38.5
2017-10-24T10:53:54.043Z,38.5
2017-10-24T10:54:54.676Z,38.5
2017-10-24T10:55:55.254Z,38.4
2017-10-24T10:56:54.966Z,38.4
2017-10-24T10:57:54.299Z,38.3
2017-10-24T10:58:55.063Z,38.3
2017-10-24T10:59:55.066Z,38.1
2017-10-24T11:00:53.919Z,38.1
2017-10-24T11:01:55.139Z,38
2017-10-24T11:02:55.411Z,38
2017-10-24T11:03:55.498Z,37.6
2017-10-24T11:04:55.543Z,37.4
2017-10-24T11:05:54.481Z,37
2017-10-24T11:06:55.893Z,36.8
2017-10-24T11:07:57.367Z,36.7
2017-10-24T11:08:55.238Z,36.3
2017-10-24T11:09:54.790Z,36.2
2017-10-24T11:10:54.864Z,35.7
2017-10-24T11:11:54.930Z,35.1
2017-10-24T11:12:54.665Z,34.6
2017-10-24T11:13:56.206Z,34.4
2017-10-24T11:14:55.776Z,34.2
2017-10-24T11:15:54.654Z,34.2
2017-10-24T11:16:56.637Z,34.2
2017-10-24T11:17:55.016Z,34.3
2017-10-24T11:18:55.010Z,34.2
2017-10-24T11:19:56.605Z,34.2
2017-10-24T11:20:55.196Z,34.2
2017-10-24T11:21:56.441Z,34.3
2017-10-24T11:22:56.544Z,34.4
2017-10-24T11:23:56.327Z,34.4
2017-10-24T11:24:56.023Z,34.5
2017-10-24T11:25:56.354Z,34.7
2017-10-24T11:26:56.197Z,34.9
2017-10-24T11:27:55.326Z,35.1
2017-10-24T11:28:55.331Z,35.2
2017-10-24T11:29:56.464Z,35.2
2017-10-24T11:30:55.256Z,35.3
2017-10-24T11:31:56.671Z,35.4
2017-10-24T11:32:56.715Z,35.5
2017-10-24T11:33:56.976Z,35.7
2017-10-24T11:34:56.849Z,35.7
2017-10-24T11:35:56.298Z,35.8
2017-10-24T11:36:56.999Z,35.8
2017-10-24T11:37:55.838Z,36
2017-10-24T11:38:55.676Z,36.1
2017-10-24T11:39:56.876Z,36.1
2017-10-24T11:40:57.090Z,36.2
2017-10-24T11:41:56.907Z,36.3
2017-10-24T11:42:56.027Z,36.4
2017-10-24T11:43:56.102Z,36.5
2017-10-24T11:44:57.287Z,36.6
2017-10-24T11:45:57.326Z,36.7
2017-10-24T11:46:56.808Z,36.8
2017-10-24T11:47:57.301Z,36.9
2017-10-24T11:48:57.087Z,37.1
2017-10-24T11:49:57.340Z,37.2
2017-10-24T11:50:57.180Z,37.3
2017-10-24T11:51:58.120Z,37.4
2017-10-24T11:52:57.678Z,37.5
2017-10-24T11:53:56.682Z,37.6
2017-10-24T11:54:56.724Z,37.7
2017-10-24T11:55:56.799Z,37.9
2017-10-24T11:56:58.090Z,38
2017-10-24T11:57:58.292Z,38.1
2017-10-24T11:59:02.352Z,38.1
2017-10-24T11:59:57.025Z,38.1
2017-10-24T12:00:58.505Z,38.2
2017-10-24T12:01:56.783Z,38.3
2017-10-24T12:02:57.323Z,38.4
2017-10-24T12:03:58.165Z,38.4
2017-10-24T12:04:58.209Z,38.5
2017-10-24T12:05:57.250Z,38.5
2017-10-24T12:06:57.673Z,38.5
2017-10-24T12:07:58.316Z,38.4
2017-10-24T12:08:58.291Z,38.5
2017-10-24T12:09:58.286Z,38.6
2017-10-24T12:10:57.111Z,38.6
2017-10-24T12:11:58.457Z,38.7
2017-10-24T12:12:58.499Z,38.8
2017-10-24T12:13:58.587Z,38.8
2017-10-24T12:14:58.679Z,38.9
2017-10-24T12:15:58.658Z,39
2017-10-24T12:16:58.626Z,39.2
2017-10-24T12:17:57.796Z,39.3
2017-10-24T12:18:58.760Z,39.3
2017-10-24T12:19:58.000Z,39.4
2017-10-24T12:22:37.867Z,39.5
2017-10-24T12:23:51.262Z,39.6
2017-10-24T12:25:01.703Z,39.5
2017-10-24T12:25:46.733Z,39.5
2017-10-24T12:26:41.101Z,39.5
2017-10-24T12:27:52.248Z,39.5
2017-10-24T12:28:41.354Z,39.7
2017-10-24T12:29:49.226Z,39.7
2017-10-24T12:30:51.416Z,39.8
2017-10-24T12:31:42.657Z,39.9
2017-10-24T12:32:51.484Z,39.9
2017-10-24T12:33:50.849Z,39.9
2017-10-24T12:34:43.601Z,39.8
2017-10-24T12:35:47.054Z,39.8
2017-10-24T12:36:50.456Z,39.8
2017-10-24T12:37:42.543Z,39.8
2017-10-24T12:38:43.466Z,39.8
2017-10-24T12:39:44.393Z,39.8
2017-10-24T12:40:48.803Z,39.8
2017-10-24T12:41:43.072Z,39.8
2017-10-24T12:42:43.086Z,39.9
2017-10-24T12:43:44.491Z,39.9
2017-10-24T12:44:43.063Z,39.9
2017-10-24T12:45:44.899Z,39.9
2017-10-24T12:46:50.946Z,40
2017-10-24T12:47:55.121Z,40
2017-10-24T12:48:48.444Z,40
2017-10-24T12:49:54.330Z,40
2017-10-24T12:50:46.424Z,40.1
2017-10-24T12:51:43.957Z,40.2
2017-10-24T12:52:49.946Z,40.3
2017-10-24T12:53:49.149Z,40.3
2017-10-24T12:54:49.099Z,40.4
2017-10-24T12:55:53.096Z,40.4
2017-10-24T12:57:50.078Z,40.5
2017-10-24T12:58:53.811Z,40.4
2017-10-24T12:59:48.114Z,40.4
2017-10-24T13:01:44.451Z,40.4
2017-10-24T13:02:46.507Z,40.3
2017-10-24T13:03:48.964Z,40.2
2017-10-24T13:04:47.111Z,40.1
2017-10-24T13:05:53.139Z,40.1
2017-10-24T13:06:41.086Z,40.1
2017-10-24T13:07:49.057Z,40.2
2017-10-24T13:08:39.831Z,40.2
2017-10-24T13:09:44.717Z,40.2
2017-10-24T13:10:42.474Z,40.3
2017-10-24T13:11:41.338Z,40.2
2017-10-24T13:12:51.017Z,40.3
2017-10-24T13:13:50.400Z,40.2
2017-10-24T13:14:47.069Z,40.2
2017-10-24T13:15:47.421Z,40.3
2017-10-24T13:16:45.725Z,40.3
2017-10-24T13:17:43.105Z,40.3
2017-10-24T13:18:43.503Z,40.4
2017-10-24T13:19:43.767Z,40.5
2017-10-24T13:20:37.699Z,40.6
2017-10-24T13:21:36.883Z,40.6
2017-10-24T13:22:36.768Z,40.8
2017-10-24T13:23:38.118Z,40.8
2017-10-24T13:24:39.390Z,40.9
2017-10-24T13:25:36.857Z,41
2017-10-24T13:26:36.864Z,40.9
2017-10-24T13:27:38.059Z,40.9
2017-10-24T13:28:38.164Z,41
2017-10-24T13:29:37.313Z,41